Wednesday, October 01, 2014
18:25 UTC
  |  Log In   |  Register Free
Airport Search:

Visalia Municipal Airport
(KVIS)

Visalia Municipal Airport Diagram
No Airport Diagram Available

FAA data valid effective September 18, 2014 - November 13, 2014 (unless otherwise noted).

 
 
 
 
 
 
 
 
 
 
 
 
 
 

Current Aviation Weather for Visalia Municipal Airport (KVIS)

The most recent METAR observation for KVIS was updated at: 1817
METAR Summary (Translated METAR)
KVIS
011755Z AUTO 18007KT 140V220 10SM CLR 21/12 A2992 RMK AO1 10210 20120 52010
KHJO
011753Z AUTO 28003KT 10SM CLR 22/09 A2991 RMK AO2 SLP128 T02170089 10217 20128 50009
(11.4 nm SW from KVIS)
KPTV
011755Z 17007KT 10SM CLR 23/11 A2992 RMK AO1 10230 20120 52003
(23.6 nm SE from KVIS)
TAF Summary (Translated TAF)
KVIS
011120Z 0112/0212 32006KT P6SM SKC
  Airport Weather Conditions for KVIS

 Current Weather at VIS
70° F
Fair
South winds at 8.1 mph
VIS NOAA Radar

Pressure: 29.92 in
Humidity: 57%
Wind: South at 8.1 MPH (7 KT)
Dew Point: 53.6°F
Visibility: 10.00 mi


Airport Weather Forecast for KVIS

Translated METAR and TAF for KVIS
Translated METAR for KVIS (1819 UTC 01 October 2014)
found at http://aviationweather.gov/adds/metars/
 
METAR text: KVIS 011815Z AUTO 21004KT 10SM CLR 22/12 A2991 RMK AO1
Conditions at: KVIS (VISALIA MUNI , CA, US) observed 1815 UTC 01 October 2014
Temperature: 22.0°C (72°F)
Dewpoint: 12.0°C (54°F) [RH = 53%]
Pressure (altimeter): 29.91 inches Hg (1013.0 mb)
Winds: from the SSW (210 degrees) at 5 MPH (4 knots; 2.1 m/s)
Visibility: 10 or more miles (16+ km)
Ceiling: at least 12,000 feet AGL
Clouds: sky clear below 12,000 feet AGL
Weather: automated observation with no human augmentation;
there may or may not be significant weather present at this time
Translated TAF for KVIS
Forecast for: KVIS (VISALIA MUNI , CA, US)
TAF Text: KVIS 011736Z 0118/0218 31007KT P6SM SKC
Forecast period: 1800 UTC 01 October 2014 to 0100 UTC 02 October 2014
Forecast type: FROM: standard forecast or significant change
Winds: from the NW (310 degrees) at 8 MPH (7 knots; 3.6 m/s)
Visibility: 6 or more miles (10+ km)
Clouds: clear skies
Weather: no significant weather forecast for this period
TAF Text: FM020100 VRB03KT P6SM SKC
Forecast period: 0100 to 1800 UTC 02 October 2014
Forecast type: FROM: standard forecast or significant change
Winds: variable direction winds at 3 MPH (3 knots; 1.6 m/s)
Visibility: 6 or more miles (10+ km)
Clouds: clear skies
Weather: no significant weather forecast for this period

Find All Airport Services Find A Hotel Find A Rental Car Find A Golf Course Find A Restaurant $100 Hamburger



FBO's on the Field
FBO Company Facility Photos Services Transportation Aviation Fuel Prices: Prices include tax
Catering Weather Repair Courtesy Rental Type 100LL JetA JetA+ MOGAS 8087
 
Add another FBO Facility Photos Catering Weather Repair Courtesy Rental Type 100LL JetA JetA+ MOGAS 8087
Services Transportation Aviation Fuel Prices: Prices include tax
There are no FBO's currently reporting fuel at VIS. List your FBO now


model-print
model-print
model-print
model-print